createdAt,value
2019-01-16T00:00:14.816Z,1005.1
2019-01-16T00:01:16.183Z,1005.1
2019-01-16T00:02:17.558Z,1005.1
2019-01-16T00:03:18.929Z,1005.1
2019-01-16T00:04:20.306Z,1005.0
2019-01-16T00:05:21.683Z,1005.0
2019-01-16T00:06:23.042Z,1005.1
2019-01-16T00:07:24.406Z,1005.0
2019-01-16T00:08:25.782Z,1005.1
2019-01-16T00:09:27.166Z,1005.1
2019-01-16T00:10:28.539Z,1005.0
2019-01-16T00:11:29.906Z,1005.0
2019-01-16T00:12:31.269Z,1005.0
2019-01-16T00:13:32.647Z,1005.0
2019-01-16T00:14:34.012Z,1004.9
2019-01-16T00:15:35.376Z,1004.9
2019-01-16T00:16:36.739Z,1005.0
2019-01-16T00:17:38.105Z,1005.0
2019-01-16T00:18:39.471Z,1005.0
2019-01-16T00:19:40.838Z,1005.0
2019-01-16T00:20:42.206Z,1004.9
2019-01-16T00:21:43.569Z,1004.9
2019-01-16T00:22:44.930Z,1004.9
2019-01-16T00:23:46.295Z,1004.9
2019-01-16T00:24:47.662Z,1004.9
2019-01-16T00:25:49.027Z,1004.9
2019-01-16T00:26:50.391Z,1004.8
2019-01-16T00:27:51.749Z,1004.9
2019-01-16T00:28:53.115Z,1004.9
2019-01-16T00:29:54.479Z,1004.9
2019-01-16T00:30:55.849Z,1004.8
2019-01-16T00:31:57.217Z,1004.8
2019-01-16T00:32:58.581Z,1004.9
2019-01-16T00:33:59.946Z,1004.9
2019-01-16T00:35:01.312Z,1004.9
2019-01-16T00:36:02.676Z,1004.8
2019-01-16T00:37:04.041Z,1004.9
2019-01-16T00:38:05.405Z,1004.9
2019-01-16T00:39:06.772Z,1004.8
2019-01-16T00:40:08.144Z,1004.8
2019-01-16T00:41:09.503Z,1004.8
2019-01-16T00:42:10.863Z,1004.8
2019-01-16T00:43:12.229Z,1004.7
2019-01-16T00:44:13.592Z,1004.8
2019-01-16T00:45:14.957Z,1004.8
2019-01-16T00:46:16.325Z,1004.8
2019-01-16T00:47:17.690Z,1004.8
2019-01-16T00:48:24.549Z,1004.8
2019-01-16T00:49:20.381Z,1004.7
2019-01-16T00:50:21.745Z,1004.8
2019-01-16T00:51:23.110Z,1004.7
2019-01-16T00:52:24.473Z,1004.7
2019-01-16T00:53:25.837Z,1004.7
2019-01-16T00:54:27.201Z,1004.6
2019-01-16T00:55:28.566Z,1004.6
2019-01-16T00:56:29.933Z,1004.6
2019-01-16T00:57:31.298Z,1004.6
2019-01-16T00:58:32.658Z,1004.6
2019-01-16T00:59:34.094Z,1004.6
2019-01-16T01:00:35.350Z,1004.6
2019-01-16T01:01:36.715Z,1004.6
2019-01-16T01:02:38.085Z,1004.5
2019-01-16T01:03:39.446Z,1004.5
2019-01-16T01:04:40.806Z,1004.5
2019-01-16T01:05:42.170Z,1004.5
2019-01-16T01:06:43.537Z,1004.5
2019-01-16T01:07:44.901Z,1004.5
2019-01-16T01:08:46.264Z,1004.6
2019-01-16T01:09:47.627Z,1004.5
2019-01-16T01:10:48.989Z,1004.5
2019-01-16T01:11:50.355Z,1004.5
2019-01-16T01:12:51.718Z,1004.5
2019-01-16T01:13:53.086Z,1004.5
2019-01-16T01:14:54.453Z,1004.6
2019-01-16T01:15:55.819Z,1004.5
2019-01-16T01:16:57.181Z,1004.5
2019-01-16T01:17:58.545Z,1004.5
2019-01-16T01:18:59.910Z,1004.5
2019-01-16T01:20:01.276Z,1004.5
2019-01-16T01:21:02.638Z,1004.5
2019-01-16T01:22:04.004Z,1004.5
2019-01-16T01:23:05.374Z,1004.5
2019-01-16T01:24:06.735Z,1004.5
2019-01-16T01:25:08.098Z,1004.5
2019-01-16T01:26:09.462Z,1004.4
2019-01-16T01:27:10.827Z,1004.4
2019-01-16T01:28:12.190Z,1004.4
2019-01-16T01:29:13.552Z,1004.4
2019-01-16T01:30:14.923Z,1004.4
2019-01-16T01:31:16.289Z,1004.5
2019-01-16T01:32:17.654Z,1004.4
2019-01-16T01:33:19.016Z,1004.4
2019-01-16T01:34:21.514Z,1004.4
2019-01-16T01:35:21.705Z,1004.4
2019-01-16T01:36:23.072Z,1004.4
2019-01-16T01:37:24.439Z,1004.4
2019-01-16T01:38:25.800Z,1004.5
2019-01-16T01:39:27.163Z,1004.4
2019-01-16T01:40:28.526Z,1004.5
2019-01-16T01:41:29.894Z,1004.5
2019-01-16T01:42:31.259Z,1004.5
2019-01-16T01:43:32.625Z,1004.5
2019-01-16T01:44:33.994Z,1004.4
2019-01-16T01:45:35.357Z,1004.4
2019-01-16T01:46:36.725Z,1004.5
2019-01-16T01:47:38.084Z,1004.5
2019-01-16T01:48:40.139Z,1004.5
2019-01-16T01:49:40.776Z,1004.5
2019-01-16T01:50:42.146Z,1004.5
2019-01-16T01:51:43.513Z,1004.5
2019-01-16T01:52:44.877Z,1004.5
2019-01-16T01:53:46.239Z,1004.4
2019-01-16T01:54:47.603Z,1004.4
2019-01-16T01:55:48.968Z,1004.4
2019-01-16T01:56:50.332Z,1004.5
2019-01-16T01:57:51.699Z,1004.5
2019-01-16T01:58:53.062Z,1004.5
2019-01-16T01:59:54.423Z,1004.5
2019-01-16T02:00:55.787Z,1004.5
2019-01-16T02:01:57.151Z,1004.5
2019-01-16T02:02:58.517Z,1004.5
2019-01-16T02:03:59.882Z,1004.4
2019-01-16T02:05:01.248Z,1004.5
2019-01-16T02:06:02.610Z,1004.4
2019-01-16T02:07:03.975Z,1004.5
2019-01-16T02:08:05.337Z,1004.4
2019-01-16T02:09:06.704Z,1004.5
2019-01-16T02:10:08.069Z,1004.5
2019-01-16T02:11:09.436Z,1004.5
2019-01-16T02:12:10.798Z,1004.5
2019-01-16T02:13:12.164Z,1004.5
2019-01-16T02:14:13.530Z,1004.4
2019-01-16T02:15:15.368Z,1004.5
2019-01-16T02:16:16.218Z,1004.5
2019-01-16T02:17:17.581Z,1004.5
2019-01-16T02:18:18.945Z,1004.4
2019-01-16T02:19:20.310Z,1004.4
2019-01-16T02:20:21.676Z,1004.4
2019-01-16T02:21:23.039Z,1004.4
2019-01-16T02:22:24.407Z,1004.4
2019-01-16T02:23:25.813Z,1004.4
2019-01-16T02:24:27.181Z,1004.4
2019-01-16T02:25:28.549Z,1004.4
2019-01-16T02:26:29.915Z,1004.4
2019-01-16T02:27:31.278Z,1004.3
2019-01-16T02:28:32.766Z,1004.3
2019-01-16T02:29:34.130Z,1004.3
2019-01-16T02:30:35.502Z,1004.3
2019-01-16T02:31:36.864Z,1004.3
2019-01-16T02:32:38.238Z,1004.3
2019-01-16T02:33:39.593Z,1004.3
2019-01-16T02:34:40.957Z,1004.3
2019-01-16T02:35:42.326Z,1004.3
2019-01-16T02:36:43.687Z,1004.3
2019-01-16T02:37:45.050Z,1004.3
2019-01-16T02:38:46.411Z,1004.2
2019-01-16T02:39:47.778Z,1004.3
2019-01-16T02:40:49.147Z,1004.3
2019-01-16T02:41:50.516Z,1004.3
2019-01-16T02:42:51.870Z,1004.3
2019-01-16T02:43:53.234Z,1004.3
2019-01-16T02:44:54.597Z,1004.3
2019-01-16T02:45:55.960Z,1004.3
2019-01-16T02:46:57.329Z,1004.3
2019-01-16T02:47:58.697Z,1004.3
2019-01-16T02:49:00.064Z,1004.3
2019-01-16T02:50:01.422Z,1004.3
2019-01-16T02:51:02.788Z,1004.3
2019-01-16T02:52:04.149Z,1004.3
2019-01-16T02:53:05.513Z,1004.2
2019-01-16T02:54:06.879Z,1004.2
2019-01-16T02:55:08.244Z,1004.2
2019-01-16T02:56:09.611Z,1004.2
2019-01-16T02:57:10.973Z,1004.2
2019-01-16T02:58:12.338Z,1004.2
2019-01-16T02:59:13.706Z,1004.2
2019-01-16T03:00:15.076Z,1004.2
2019-01-16T03:01:16.440Z,1004.2
2019-01-16T03:02:17.807Z,1004.2
2019-01-16T03:03:19.173Z,1004.2
2019-01-16T03:04:20.538Z,1004.2
2019-01-16T03:05:21.900Z,1004.1
2019-01-16T03:06:23.267Z,1004.0
2019-01-16T03:07:24.626Z,1004.0
2019-01-16T03:08:25.990Z,1003.9
2019-01-16T03:09:27.358Z,1003.9
2019-01-16T03:10:28.722Z,1004.0
2019-01-16T03:11:30.084Z,1004.0
2019-01-16T03:12:31.454Z,1003.9
2019-01-16T03:13:32.811Z,1003.9
2019-01-16T03:14:34.177Z,1003.9
2019-01-16T03:15:35.549Z,1003.9
2019-01-16T03:16:36.910Z,1003.8
2019-01-16T03:17:38.275Z,1003.9
2019-01-16T03:18:39.641Z,1003.9
2019-01-16T03:19:41.005Z,1003.9
2019-01-16T03:20:42.369Z,1003.8
2019-01-16T03:21:43.734Z,1003.8
2019-01-16T03:22:45.098Z,1003.8
2019-01-16T03:23:46.464Z,1003.8
2019-01-16T03:24:47.828Z,1003.8
2019-01-16T03:25:49.192Z,1003.7
2019-01-16T03:26:50.561Z,1003.8
2019-01-16T03:27:51.921Z,1003.8
2019-01-16T03:28:53.285Z,1003.7
2019-01-16T03:29:54.649Z,1003.8
2019-01-16T03:30:56.017Z,1003.8
2019-01-16T03:31:57.384Z,1003.8
2019-01-16T03:32:58.747Z,1003.7
2019-01-16T03:34:00.111Z,1003.6
2019-01-16T03:35:01.475Z,1003.7
2019-01-16T03:36:02.839Z,1003.7
2019-01-16T03:37:04.206Z,1003.7
2019-01-16T03:38:05.575Z,1003.7
2019-01-16T03:39:06.941Z,1003.6
2019-01-16T03:40:08.303Z,1003.6
2019-01-16T03:41:09.666Z,1003.6
2019-01-16T03:42:11.035Z,1003.7
2019-01-16T03:43:12.394Z,1003.6
2019-01-16T03:44:13.758Z,1003.6
2019-01-16T03:45:15.126Z,1003.7
2019-01-16T03:46:16.490Z,1003.6
2019-01-16T03:47:17.854Z,1003.6
2019-01-16T03:48:23.249Z,1003.6
2019-01-16T03:49:25.877Z,1003.6
2019-01-16T03:50:27.654Z,1003.6
2019-01-16T03:51:29.105Z,1003.6
2019-01-16T03:52:30.509Z,1003.6
2019-01-16T03:53:31.863Z,1003.6
2019-01-16T03:54:33.215Z,1003.6
2019-01-16T03:55:34.595Z,1003.5
2019-01-16T03:56:35.954Z,1003.5
2019-01-16T03:57:37.316Z,1003.5
2019-01-16T03:58:38.686Z,1003.5
2019-01-16T03:59:40.051Z,1003.5
2019-01-16T04:00:41.423Z,1003.4
2019-01-16T04:01:42.785Z,1003.5
2019-01-16T04:02:44.154Z,1003.4
2019-01-16T04:03:45.513Z,1003.4
2019-01-16T04:04:46.883Z,1003.4
2019-01-16T04:05:48.252Z,1003.5
2019-01-16T04:06:49.636Z,1003.4
2019-01-16T04:07:51.000Z,1003.4
2019-01-16T04:08:52.368Z,1003.3
2019-01-16T04:09:53.731Z,1003.3
2019-01-16T04:10:55.100Z,1003.3
2019-01-16T04:11:56.478Z,1003.3
2019-01-16T04:12:57.850Z,1003.3
2019-01-16T04:13:59.217Z,1003.3
2019-01-16T04:15:00.584Z,1003.3
2019-01-16T04:16:01.940Z,1003.2
2019-01-16T04:17:03.325Z,1003.3
2019-01-16T04:18:04.702Z,1003.3
2019-01-16T04:19:06.048Z,1003.3
2019-01-16T04:20:07.415Z,1003.3
2019-01-16T04:21:08.793Z,1003.2
2019-01-16T04:22:10.162Z,1003.2
2019-01-16T04:23:11.545Z,1003.2
2019-01-16T04:24:12.903Z,1003.2
2019-01-16T04:25:14.266Z,1003.2
2019-01-16T04:26:15.695Z,1003.2
2019-01-16T04:27:17.014Z,1003.2
2019-01-16T04:28:18.378Z,1003.1
2019-01-16T04:29:19.752Z,1003.1
2019-01-16T04:30:21.119Z,1003.2
2019-01-16T04:31:22.497Z,1003.2
2019-01-16T04:32:23.862Z,1003.1
2019-01-16T04:33:25.219Z,1003.1
2019-01-16T04:34:26.587Z,1003.1
2019-01-16T04:35:27.960Z,1003.1
2019-01-16T04:36:29.349Z,1003.1
2019-01-16T04:37:30.703Z,1003.1
2019-01-16T04:38:32.059Z,1003.0
2019-01-16T04:39:33.447Z,1003.0
2019-01-16T04:40:34.805Z,1003.0
2019-01-16T04:41:36.175Z,1002.9
2019-01-16T04:42:37.534Z,1002.9
2019-01-16T04:43:38.924Z,1002.9
2019-01-16T04:44:40.297Z,1002.9
2019-01-16T04:45:41.657Z,1002.9
2019-01-16T04:46:43.022Z,1002.9
2019-01-16T04:47:44.386Z,1002.8
2019-01-16T04:48:45.751Z,1002.8
2019-01-16T04:49:47.138Z,1002.9
2019-01-16T04:50:48.489Z,1002.9
2019-01-16T04:51:49.853Z,1002.8
2019-01-16T04:52:51.231Z,1002.8
2019-01-16T04:53:52.594Z,1002.8
2019-01-16T04:54:53.963Z,1002.8
2019-01-16T04:55:55.336Z,1002.9
2019-01-16T04:56:56.693Z,1002.8
2019-01-16T04:57:58.058Z,1002.8
2019-01-16T04:58:59.436Z,1002.8
2019-01-16T05:00:00.782Z,1002.8
2019-01-16T05:01:02.135Z,1002.8
2019-01-16T05:02:03.517Z,1002.8
2019-01-16T05:03:04.874Z,1002.8
2019-01-16T05:04:06.249Z,1002.8
2019-01-16T05:05:07.614Z,1002.7
2019-01-16T05:06:08.978Z,1002.7
2019-01-16T05:07:10.344Z,1002.7
2019-01-16T05:08:11.722Z,1002.7
2019-01-16T05:09:13.077Z,1002.7
2019-01-16T05:10:14.463Z,1002.7
2019-01-16T05:11:16.099Z,1002.7
2019-01-16T05:12:17.416Z,1002.6
2019-01-16T05:13:18.782Z,1002.6
2019-01-16T05:14:20.143Z,1002.6
2019-01-16T05:15:21.517Z,1002.7
2019-01-16T05:16:22.884Z,1002.6
2019-01-16T05:17:24.246Z,1002.5
2019-01-16T05:18:25.602Z,1002.6
2019-01-16T05:19:26.983Z,1002.6
2019-01-16T05:20:28.343Z,1002.6
2019-01-16T05:21:29.707Z,1002.7
2019-01-16T05:22:31.187Z,1002.6
2019-01-16T05:23:32.560Z,1002.6
2019-01-16T05:24:33.935Z,1002.6
2019-01-16T05:25:35.294Z,1002.6
2019-01-16T05:26:36.674Z,1002.6
2019-01-16T05:27:38.037Z,1002.6
2019-01-16T05:28:39.508Z,1002.5
2019-01-16T05:29:40.873Z,1002.6
2019-01-16T05:30:42.268Z,1002.6
2019-01-16T05:31:43.638Z,1002.6
2019-01-16T05:32:45.028Z,1002.6
2019-01-16T05:33:46.402Z,1002.6
2019-01-16T05:34:47.779Z,1002.6
2019-01-16T05:35:49.169Z,1002.6
2019-01-16T05:36:50.539Z,1002.6
2019-01-16T05:37:51.917Z,1002.5
2019-01-16T05:38:53.285Z,1002.6
2019-01-16T05:39:54.670Z,1002.6
2019-01-16T05:40:56.032Z,1002.5
2019-01-16T05:41:57.402Z,1002.5
2019-01-16T05:42:58.766Z,1002.5
2019-01-16T05:44:00.134Z,1002.5
2019-01-16T05:45:01.512Z,1002.5
2019-01-16T05:46:02.875Z,1002.5
2019-01-16T05:47:04.262Z,1002.4
2019-01-16T05:48:05.618Z,1002.4
2019-01-16T05:49:07.008Z,1002.3
2019-01-16T05:50:08.357Z,1002.4
2019-01-16T05:51:09.725Z,1002.3
2019-01-16T05:52:11.080Z,1002.3
2019-01-16T05:53:12.445Z,1002.4
2019-01-16T05:54:13.818Z,1002.3
2019-01-16T05:55:15.186Z,1002.3
2019-01-16T05:56:16.567Z,1002.3
2019-01-16T05:57:17.931Z,1002.3
2019-01-16T05:58:19.292Z,1002.3
2019-01-16T05:59:20.672Z,1002.3
2019-01-16T06:00:22.034Z,1002.3
2019-01-16T06:01:23.400Z,1002.2
2019-01-16T06:02:24.770Z,1002.2
2019-01-16T06:03:26.130Z,1002.2
2019-01-16T06:04:27.496Z,1002.2
2019-01-16T06:05:28.857Z,1002.2
2019-01-16T06:06:30.219Z,1002.2
2019-01-16T06:07:31.595Z,1002.2
2019-01-16T06:08:32.966Z,1002.2
2019-01-16T06:09:34.374Z,1002.2
2019-01-16T06:10:35.743Z,1002.2
2019-01-16T06:11:37.117Z,1002.1
2019-01-16T06:12:38.562Z,1002.1
2019-01-16T06:13:39.863Z,1002.1
2019-01-16T06:14:41.223Z,1002.1
2019-01-16T06:15:42.609Z,1002.1
2019-01-16T06:16:43.988Z,1002.1
2019-01-16T06:17:45.393Z,1002.0
2019-01-16T06:18:46.775Z,1002.0
2019-01-16T06:19:53.993Z,1002.1
2019-01-16T06:20:49.551Z,1002.0
2019-01-16T06:21:50.954Z,1002.0
2019-01-16T06:22:52.352Z,1002.0
2019-01-16T06:23:53.727Z,1002.1
2019-01-16T06:24:55.132Z,1002.0
2019-01-16T06:25:56.507Z,1002.0
2019-01-16T06:26:57.871Z,1002.0
2019-01-16T06:27:59.232Z,1002.0
2019-01-16T06:29:00.595Z,1002.1
2019-01-16T06:30:01.969Z,1002.1
2019-01-16T06:31:03.324Z,1002.1
2019-01-16T06:32:04.701Z,1002.1
2019-01-16T06:33:06.063Z,1002.1
2019-01-16T06:34:07.427Z,1002.1
2019-01-16T06:35:08.795Z,1002.1
2019-01-16T06:36:10.180Z,1002.1
2019-01-16T06:37:11.555Z,1002.1
2019-01-16T06:38:12.978Z,1002.1
2019-01-16T06:39:14.372Z,1002.1
2019-01-16T06:40:15.794Z,1002.0
2019-01-16T06:41:17.209Z,1002.0
2019-01-16T06:42:18.634Z,1002.1
2019-01-16T06:43:20.044Z,1002.0
2019-01-16T06:44:21.448Z,1002.0
2019-01-16T06:45:22.881Z,1002.0
2019-01-16T06:46:24.242Z,1002.0
2019-01-16T06:47:25.609Z,1002.0
2019-01-16T06:48:26.977Z,1001.9
2019-01-16T06:49:28.345Z,1001.9
2019-01-16T06:50:29.714Z,1001.9
2019-01-16T06:51:31.096Z,1002.0
2019-01-16T06:52:32.459Z,1001.9
2019-01-16T06:53:33.828Z,1002.0
2019-01-16T06:54:35.195Z,1002.0
2019-01-16T06:55:36.614Z,1002.0
2019-01-16T06:56:38.027Z,1001.9
2019-01-16T06:57:39.480Z,1001.9
2019-01-16T06:58:40.911Z,1001.9
2019-01-16T06:59:42.322Z,1001.9
2019-01-16T07:00:43.733Z,1001.9
2019-01-16T07:01:45.117Z,1001.9
2019-01-16T07:02:46.554Z,1001.9
2019-01-16T07:03:47.947Z,1001.9
2019-01-16T07:04:49.381Z,1001.9
2019-01-16T07:05:50.774Z,1001.9
2019-01-16T07:06:52.163Z,1001.9
2019-01-16T07:07:53.576Z,1001.9
2019-01-16T07:08:55.009Z,1002.0
2019-01-16T07:09:56.430Z,1001.8
2019-01-16T07:10:57.854Z,1001.9
2019-01-16T07:11:59.245Z,1001.9
2019-01-16T07:13:00.668Z,1001.9
2019-01-16T07:14:02.059Z,1001.9
2019-01-16T07:15:03.465Z,1001.9
2019-01-16T07:16:04.844Z,1001.9
2019-01-16T07:17:06.281Z,1001.8
2019-01-16T07:18:07.702Z,1001.8
2019-01-16T07:19:09.102Z,1001.9
2019-01-16T07:20:10.518Z,1001.8
2019-01-16T07:21:11.914Z,1001.9
2019-01-16T07:22:13.366Z,1001.6
2019-01-16T07:23:14.781Z,1001.8
2019-01-16T07:24:16.222Z,1001.8
2019-01-16T07:25:17.625Z,1001.8
2019-01-16T07:26:19.036Z,1001.8
2019-01-16T07:27:20.459Z,1001.7
2019-01-16T07:28:21.899Z,1001.8
2019-01-16T07:29:23.275Z,1001.8
2019-01-16T07:30:24.646Z,1001.8
2019-01-16T07:31:26.016Z,1001.7
2019-01-16T07:32:27.393Z,1001.7
2019-01-16T07:33:28.756Z,1001.7
2019-01-16T07:34:30.128Z,1001.7
2019-01-16T07:35:31.507Z,1001.7
2019-01-16T07:36:32.869Z,1001.7
2019-01-16T07:37:34.296Z,1001.7
2019-01-16T07:38:35.753Z,1001.6
2019-01-16T07:39:37.178Z,1001.7
2019-01-16T07:40:38.602Z,1001.7
2019-01-16T07:41:40.034Z,1001.6
2019-01-16T07:42:46.813Z,1001.5
2019-01-16T07:43:42.815Z,1001.6
2019-01-16T07:44:44.217Z,1001.6
2019-01-16T07:45:45.646Z,1001.6
2019-01-16T07:46:48.461Z,1001.7
2019-01-16T07:47:48.474Z,1001.7
2019-01-16T07:48:49.895Z,1001.7
2019-01-16T07:49:51.296Z,1001.6
2019-01-16T07:50:52.677Z,1001.7
2019-01-16T07:51:54.101Z,1001.8
2019-01-16T07:52:55.535Z,1001.8
2019-01-16T07:53:56.928Z,1001.8
2019-01-16T07:54:58.335Z,1001.8
2019-01-16T07:55:59.781Z,1001.7
2019-01-16T07:57:01.243Z,1001.8
2019-01-16T07:58:02.650Z,1001.8
2019-01-16T07:59:04.084Z,1001.7
2019-01-16T08:00:05.507Z,1001.7
2019-01-16T08:01:06.912Z,1001.8
2019-01-16T08:02:08.321Z,1001.8
2019-01-16T08:03:09.729Z,1001.7
2019-01-16T08:04:11.141Z,1001.8
2019-01-16T08:05:12.552Z,1001.9
2019-01-16T08:06:13.972Z,1001.8
2019-01-16T08:07:15.382Z,1001.8
2019-01-16T08:08:16.798Z,1001.8
2019-01-16T08:09:18.231Z,1001.7
2019-01-16T08:10:19.640Z,1001.8
2019-01-16T08:11:21.051Z,1001.8
2019-01-16T08:12:22.465Z,1001.8
2019-01-16T08:13:23.870Z,1001.8
2019-01-16T08:14:25.329Z,1001.8
2019-01-16T08:15:26.741Z,1001.8
2019-01-16T08:16:28.216Z,1001.9
2019-01-16T08:17:29.630Z,1001.9
2019-01-16T08:18:31.023Z,1001.8
2019-01-16T08:19:32.432Z,1001.9
2019-01-16T08:20:33.802Z,1001.9
2019-01-16T08:21:35.221Z,1001.9
2019-01-16T08:22:36.656Z,1001.9
2019-01-16T08:23:38.083Z,1001.9
2019-01-16T08:24:39.527Z,1001.9
2019-01-16T08:25:40.975Z,1002.0
2019-01-16T08:26:42.402Z,1001.9
2019-01-16T08:27:43.794Z,1001.9
2019-01-16T08:28:45.334Z,1001.9
2019-01-16T08:29:46.741Z,1001.9
2019-01-16T08:30:48.151Z,1001.9
2019-01-16T08:31:49.573Z,1001.9
2019-01-16T08:32:50.980Z,1001.9
2019-01-16T08:33:52.389Z,1001.9
2019-01-16T08:34:53.819Z,1001.9
2019-01-16T08:35:55.245Z,1001.9
2019-01-16T08:36:56.650Z,1002.0
2019-01-16T08:37:58.075Z,1002.0
2019-01-16T08:38:59.494Z,1002.0
2019-01-16T08:40:00.900Z,1002.0
2019-01-16T08:41:02.331Z,1002.0
2019-01-16T08:42:03.745Z,1002.0
2019-01-16T08:43:05.177Z,1002.1
2019-01-16T08:44:13.423Z,1002.1
2019-01-16T08:45:07.965Z,1002.2
2019-01-16T08:46:09.353Z,1002.0
2019-01-16T08:47:10.776Z,1002.1
2019-01-16T08:48:12.161Z,1002.1
2019-01-16T08:49:13.574Z,1002.1
2019-01-16T08:50:14.990Z,1002.1
2019-01-16T08:51:16.431Z,1002.1
2019-01-16T08:52:17.846Z,1002.1
2019-01-16T08:53:19.265Z,1002.1
2019-01-16T08:54:20.689Z,1002.1
2019-01-16T08:55:22.125Z,1002.1
2019-01-16T08:56:23.552Z,1002.0
2019-01-16T08:57:24.936Z,1002.1
2019-01-16T08:58:26.355Z,1002.1
2019-01-16T08:59:27.790Z,1002.1
2019-01-16T09:00:29.199Z,1002.1
2019-01-16T09:01:32.744Z,1002.1
2019-01-16T09:02:32.012Z,1002.1
2019-01-16T09:03:33.419Z,1002.1
2019-01-16T09:04:34.861Z,1002.0
2019-01-16T09:05:36.290Z,1002.0
2019-01-16T09:06:37.702Z,1002.0
2019-01-16T09:07:39.136Z,1002.0
2019-01-16T09:08:40.553Z,1002.0
2019-01-16T09:09:41.963Z,1002.0
2019-01-16T09:10:43.397Z,1002.0
2019-01-16T09:11:44.823Z,1002.0
2019-01-16T09:12:46.250Z,1002.0
2019-01-16T09:13:47.658Z,1002.0
2019-01-16T09:14:49.069Z,1002.0
2019-01-16T09:15:50.485Z,1002.0
2019-01-16T09:16:51.918Z,1002.1
2019-01-16T09:17:53.339Z,1002.0
2019-01-16T09:18:54.733Z,1002.0
2019-01-16T09:19:56.142Z,1002.0
2019-01-16T09:20:57.573Z,1002.0
2019-01-16T09:21:59.015Z,1002.0
2019-01-16T09:23:00.446Z,1002.0
2019-01-16T09:24:01.877Z,1001.9
2019-01-16T09:25:03.275Z,1001.9
2019-01-16T09:26:04.705Z,1001.9
2019-01-16T09:27:06.115Z,1001.9
2019-01-16T09:28:07.575Z,1001.9
2019-01-16T09:29:08.968Z,1001.9
2019-01-16T09:30:10.382Z,1001.9
2019-01-16T09:31:11.810Z,1001.9
2019-01-16T09:32:13.246Z,1001.9
2019-01-16T09:33:14.657Z,1001.9
2019-01-16T09:34:16.081Z,1001.8
2019-01-16T09:35:17.494Z,1001.8
2019-01-16T09:36:18.895Z,1001.9
2019-01-16T09:37:20.304Z,1001.9
2019-01-16T09:38:21.735Z,1001.9
2019-01-16T09:39:23.182Z,1001.8
2019-01-16T09:40:24.575Z,1001.7
2019-01-16T09:41:25.980Z,1001.8
2019-01-16T09:42:27.393Z,1001.7
2019-01-16T09:43:28.922Z,1001.8
2019-01-16T09:44:30.342Z,1001.7
2019-01-16T09:45:31.777Z,1001.7
2019-01-16T09:46:33.195Z,1001.7
2019-01-16T09:47:34.582Z,1001.7
2019-01-16T09:48:36.037Z,1001.7
2019-01-16T09:49:37.580Z,1001.6
2019-01-16T09:50:38.980Z,1001.6
2019-01-16T09:51:40.423Z,1001.6
2019-01-16T09:52:41.855Z,1001.6
2019-01-16T09:53:43.253Z,1001.6
2019-01-16T09:54:44.677Z,1001.5
2019-01-16T09:55:46.092Z,1001.5
2019-01-16T09:56:47.515Z,1001.5
2019-01-16T09:57:48.969Z,1001.6
2019-01-16T09:58:50.401Z,1001.6
2019-01-16T09:59:51.803Z,1001.6
2019-01-16T10:00:53.217Z,1001.6
2019-01-16T10:01:54.673Z,1001.6
2019-01-16T10:02:56.111Z,1001.6
2019-01-16T10:03:57.549Z,1001.6
2019-01-16T10:04:58.995Z,1001.5
2019-01-16T10:06:00.406Z,1001.6
2019-01-16T10:07:01.809Z,1001.5
2019-01-16T10:08:03.208Z,1001.5
2019-01-16T10:09:04.627Z,1001.5
2019-01-16T10:10:06.043Z,1001.5
2019-01-16T10:11:07.455Z,1001.4
2019-01-16T10:12:08.864Z,1001.4
2019-01-16T10:13:10.275Z,1001.5
2019-01-16T10:14:11.722Z,1001.4
2019-01-16T10:15:13.176Z,1001.4
2019-01-16T10:16:14.566Z,1001.4
2019-01-16T10:17:16.013Z,1001.5
2019-01-16T10:18:17.454Z,1001.4
2019-01-16T10:19:18.854Z,1001.4
2019-01-16T10:20:20.273Z,1001.4
2019-01-16T10:21:21.704Z,1001.4
2019-01-16T10:22:23.131Z,1001.4
2019-01-16T10:23:24.549Z,1001.4
2019-01-16T10:24:25.998Z,1001.5
2019-01-16T10:25:27.437Z,1001.4
2019-01-16T10:26:28.866Z,1001.4
2019-01-16T10:27:30.285Z,1001.4
2019-01-16T10:28:31.693Z,1001.3
2019-01-16T10:29:33.094Z,1001.4
2019-01-16T10:30:34.493Z,1001.4
2019-01-16T10:31:35.962Z,1001.5
2019-01-16T10:32:37.392Z,1001.5
2019-01-16T10:33:38.779Z,1001.4
2019-01-16T10:34:40.195Z,1001.4
2019-01-16T10:35:41.661Z,1001.3
2019-01-16T10:36:43.076Z,1001.3
2019-01-16T10:37:44.463Z,1001.3
2019-01-16T10:38:45.876Z,1001.2
2019-01-16T10:39:47.282Z,1001.2
2019-01-16T10:40:48.694Z,1001.2
2019-01-16T10:41:50.108Z,1001.2
2019-01-16T10:42:51.495Z,1001.3
2019-01-16T10:43:52.871Z,1001.3
2019-01-16T10:44:54.283Z,1001.3
2019-01-16T10:45:55.666Z,1001.3
2019-01-16T10:46:57.076Z,1001.3
2019-01-16T10:47:58.510Z,1001.1
2019-01-16T10:48:59.953Z,1001.2
2019-01-16T10:50:01.354Z,1001.1
2019-01-16T10:51:03.279Z,1001.1
2019-01-16T10:52:04.156Z,1001.1
2019-01-16T10:53:05.544Z,1001.1
2019-01-16T10:54:06.973Z,1001.1
2019-01-16T10:55:08.355Z,1000.9
2019-01-16T10:56:09.795Z,1001.0
2019-01-16T10:57:11.240Z,1001.0
2019-01-16T10:58:12.628Z,1001.0
2019-01-16T10:59:14.036Z,1001.1
2019-01-16T11:00:15.467Z,1001.0
2019-01-16T11:01:16.873Z,1000.9
2019-01-16T11:02:18.251Z,1000.9
2019-01-16T11:03:19.623Z,1000.9
2019-01-16T11:04:20.992Z,1000.8
2019-01-16T11:05:22.362Z,1000.9
2019-01-16T11:06:23.744Z,1000.8
2019-01-16T11:07:25.135Z,1000.8
2019-01-16T11:08:26.511Z,1000.9
2019-01-16T11:09:27.881Z,1000.9
2019-01-16T11:10:29.261Z,1000.9
2019-01-16T11:11:30.627Z,1000.8
2019-01-16T11:12:31.988Z,1000.9
2019-01-16T11:13:33.401Z,1000.8
2019-01-16T11:14:34.750Z,1000.8
2019-01-16T11:15:36.120Z,1000.8
2019-01-16T11:16:38.615Z,1000.7
2019-01-16T11:17:38.829Z,1000.8
2019-01-16T11:18:40.199Z,1000.7
2019-01-16T11:19:41.566Z,1000.7
2019-01-16T11:20:42.941Z,1000.7
2019-01-16T11:21:44.310Z,1000.7
2019-01-16T11:22:45.687Z,1000.7
2019-01-16T11:23:47.065Z,1000.6
2019-01-16T11:24:48.438Z,1000.7
2019-01-16T11:25:49.797Z,1000.6
2019-01-16T11:26:51.178Z,1000.6
2019-01-16T11:27:52.542Z,1000.6
2019-01-16T11:28:54.037Z,1000.6
2019-01-16T11:29:55.398Z,1000.6
2019-01-16T11:30:56.781Z,1000.6
2019-01-16T11:31:58.143Z,1000.6
2019-01-16T11:32:59.509Z,1000.6
2019-01-16T11:34:00.919Z,1000.6
2019-01-16T11:35:02.329Z,1000.4
2019-01-16T11:36:03.727Z,1000.6
2019-01-16T11:37:05.167Z,1000.5
2019-01-16T11:38:06.598Z,1000.5
2019-01-16T11:39:08.022Z,1000.5
2019-01-16T11:40:09.415Z,1000.5
2019-01-16T11:41:10.818Z,1000.5
2019-01-16T11:42:12.208Z,1000.4
2019-01-16T11:43:13.674Z,1000.5
2019-01-16T11:44:15.079Z,1000.4
2019-01-16T11:45:16.469Z,1000.4
2019-01-16T11:46:17.878Z,1000.3
2019-01-16T11:47:19.307Z,1000.4
2019-01-16T11:48:20.755Z,1000.3
2019-01-16T11:49:22.157Z,1000.3
2019-01-16T11:50:23.553Z,1000.3
2019-01-16T11:51:25.025Z,1000.3
2019-01-16T11:52:26.424Z,1000.3
2019-01-16T11:53:27.833Z,1000.2
2019-01-16T11:54:29.247Z,1000.2
2019-01-16T11:55:30.635Z,1000.2
2019-01-16T11:56:32.049Z,1000.2
2019-01-16T11:57:33.449Z,1000.2
2019-01-16T11:58:34.845Z,1000.2
2019-01-16T11:59:36.290Z,1000.1
2019-01-16T12:00:37.704Z,1000.1
2019-01-16T12:01:39.077Z,1000.1
2019-01-16T12:02:40.476Z,1000.1
2019-01-16T12:03:41.867Z,1000.1
2019-01-16T12:04:43.291Z,1000.0
2019-01-16T12:05:44.723Z,1000.0
2019-01-16T12:06:46.152Z,1000.0
2019-01-16T12:07:47.565Z,999.9
2019-01-16T12:08:49.002Z,999.8
2019-01-16T12:09:50.436Z,999.9
2019-01-16T12:10:51.836Z,999.9
2019-01-16T12:11:53.276Z,999.8
2019-01-16T12:12:54.683Z,999.8
2019-01-16T12:13:56.089Z,999.7
2019-01-16T12:14:57.532Z,999.8
2019-01-16T12:15:58.942Z,999.8
2019-01-16T12:17:00.366Z,999.8
2019-01-16T12:18:01.829Z,999.8
2019-01-16T12:19:03.741Z,999.8
2019-01-16T12:20:05.178Z,999.8
2019-01-16T12:21:06.590Z,999.8
2019-01-16T12:22:07.998Z,999.9
2019-01-16T12:23:09.421Z,999.9
2019-01-16T12:24:10.825Z,999.9
2019-01-16T12:25:12.244Z,999.9
2019-01-16T12:26:13.679Z,999.8
2019-01-16T12:27:15.121Z,999.9
2019-01-16T12:28:16.532Z,999.8
2019-01-16T12:29:17.944Z,999.8
2019-01-16T12:30:19.364Z,999.8
2019-01-16T12:31:20.781Z,999.8
2019-01-16T12:32:22.188Z,999.8
2019-01-16T12:33:23.618Z,999.8
2019-01-16T12:34:25.078Z,999.8
2019-01-16T12:35:26.469Z,999.8
2019-01-16T12:36:27.889Z,999.8
2019-01-16T12:37:29.278Z,999.8
2019-01-16T12:38:30.708Z,999.8
2019-01-16T12:39:32.102Z,999.7
2019-01-16T12:40:33.523Z,999.8
2019-01-16T12:41:34.956Z,999.7
2019-01-16T12:42:36.351Z,999.7
2019-01-16T12:43:37.781Z,999.7
2019-01-16T12:44:39.171Z,999.6
2019-01-16T12:45:40.591Z,999.6
2019-01-16T12:46:42.061Z,999.6